Time;durP1;ratioP1;P1;durP2;ratioP2;P2;SDS_P1;SDS_P2;PMS_P1;PMS_P2;Temp;Humidity;BMP_temperature;BMP_pressure;BME280_temperature;BME280_humidity;BME280_pressure;Samples;Min_cycle;Max_cycle;Signal;HPM_P1;HPM_P2
2022/05/31 00:00:23;;;;;;;12.50;6.65;;;;;;;;;;4993971;28;20037;-66
2022/05/31 00:02:51;;;;;;;8.70;6.40;;;;;;;;;;4990939;28;20060;-66
2022/05/31 00:05:16;;;;;;;12.75;6.85;;;;;;;;;;4991842;28;20613;-66
2022/05/31 00:07:42;;;;;;;11.35;7.18;;;;;;;;;;5007740;28;20040;-66
2022/05/31 00:10:09;;;;;;;14.65;8.02;;;;;;;;;;4987655;28;20114;-63
2022/05/31 00:12:34;;;;;;;13.27;7.40;;;;;;;;;;4991420;28;20068;-65
2022/05/31 00:15:00;;;;;;;17.23;9.75;;;;;;;;;;4978370;28;20566;-65
2022/05/31 00:17:26;;;;;;;20.02;9.57;;;;;;;;;;4985026;28;20038;-64
2022/05/31 00:19:51;;;;;;;19.73;10.15;;;;;;;;;;4970852;28;20068;-66
2022/05/31 00:22:18;;;;;;;17.30;9.25;;;;;;;;;;4971548;28;20048;-65
2022/05/31 00:24:44;;;;;;;16.67;9.35;;;;;;;;;;4985401;28;20132;-65
2022/05/31 00:27:10;;;;;;;15.25;9.40;;;;;;;;;;4990277;28;20823;-66
2022/05/31 00:29:36;;;;;;;18.17;9.38;;;;;;;;;;4991581;28;20037;-66
2022/05/31 00:32:05;;;;;;;13.65;9.07;;;;;;;;;;4991758;28;20856;-67
2022/05/31 00:34:34;;;;;;;18.15;9.38;;;;;;;;;;4991055;28;20075;-64
2022/05/31 00:36:59;;;;;;;17.40;9.82;;;;;;;;;;4990716;28;20064;-65
2022/05/31 00:39:27;;;;;;;19.55;9.05;;;;;;;;;;4991459;28;20700;-63
2022/05/31 00:41:57;;;;;;;19.85;9.05;;;;;;;;;;4991344;28;20045;-64
2022/05/31 00:44:27;;;;;;;17.30;9.30;;;;;;;;;;4979338;28;21178;-64
2022/05/31 00:46:57;;;;;;;20.52;9.65;;;;;;;;;;4990071;28;20173;-64
2022/05/31 00:49:42;;;;;;;14.82;8.88;;;;;;;;;;4990488;28;20191;-64
2022/05/31 00:52:14;;;;;;;18.35;8.80;;;;;;;;;;4990686;28;20115;-63
2022/05/31 00:54:42;;;;;;;18.63;8.90;;;;;;;;;;4979467;28;20041;-65
2022/05/31 00:57:08;;;;;;;19.13;9.38;;;;;;;;;;4983058;28;20823;-66
2022/05/31 00:59:36;;;;;;;17.73;9.27;;;;;;;;;;4972676;28;20038;-66
2022/05/31 01:02:02;;;;;;;16.90;10.07;;;;;;;;;;4972595;28;20075;-66
2022/05/31 01:04:32;;;;;;;20.15;9.40;;;;;;;;;;4961038;28;20033;-65
2022/05/31 01:06:59;;;;;;;22.23;10.50;;;;;;;;;;4970436;28;20030;-66
2022/05/31 01:09:25;;;;;;;21.40;10.23;;;;;;;;;;4972200;28;20778;-66
2022/05/31 01:11:51;;;;;;;18.20;9.75;;;;;;;;;;4971901;28;20042;-66
2022/05/31 01:14:18;;;;;;;14.98;8.77;;;;;;;;;;4971887;28;20808;-66
2022/05/31 01:16:53;;;;;;;17.90;9.13;;;;;;;;;;4959967;28;20825;-65
2022/05/31 01:19:55;;;;;;;16.85;8.63;;;;;;;;;;4991764;28;21238;-64
2022/05/31 01:22:04;;;;;;;18.20;9.25;;;;;;;;;;5003218;28;20051;-66
2022/05/31 01:24:30;;;;;;;16.95;9.50;;;;;;;;;;4990900;28;20838;-65
2022/05/31 01:27:00;;;;;;;14.52;8.52;;;;;;;;;;4970938;28;20069;-66
2022/05/31 01:29:27;;;;;;;15.63;9.10;;;;;;;;;;4971149;28;20066;-65
2022/05/31 01:31:59;;;;;;;15.20;9.13;;;;;;;;;;4985305;28;20042;-65
2022/05/31 01:34:29;;;;;;;15.52;9.27;;;;;;;;;;4968906;28;20065;-65
2022/05/31 01:36:56;;;;;;;13.68;8.52;;;;;;;;;;4970817;28;20046;-66
2022/05/31 01:39:41;;;;;;;13.32;8.55;;;;;;;;;;4970220;28;20041;-66
2022/05/31 01:42:15;;;;;;;15.20;8.68;;;;;;;;;;4971774;28;20203;-66
2022/05/31 01:44:43;;;;;;;19.10;9.57;;;;;;;;;;4971592;28;20038;-65
2022/05/31 01:47:08;;;;;;;19.02;10.00;;;;;;;;;;4959391;28;21935;-65
2022/05/31 01:49:35;;;;;;;18.25;9.98;;;;;;;;;;4970153;28;20038;-66
2022/05/31 01:52:01;;;;;;;17.60;10.10;;;;;;;;;;4972855;28;20050;-65
2022/05/31 01:54:27;;;;;;;18.08;10.68;;;;;;;;;;4971750;28;20182;-65
2022/05/31 01:56:57;;;;;;;23.38;10.27;;;;;;;;;;4973187;28;20057;-65
2022/05/31 01:59:23;;;;;;;22.63;11.35;;;;;;;;;;4975271;28;20907;-65
2022/05/31 02:01:49;;;;;;;16.10;9.77;;;;;;;;;;4973313;28;20092;-65
2022/05/31 02:04:16;;;;;;;18.98;9.85;;;;;;;;;;4973329;28;20053;-64
2022/05/31 02:06:42;;;;;;;20.50;10.13;;;;;;;;;;4962507;28;20041;-64
2022/05/31 02:09:10;;;;;;;17.45;8.98;;;;;;;;;;4974179;28;20073;-65
2022/05/31 02:11:36;;;;;;;19.55;9.07;;;;;;;;;;4972394;28;21350;-64
2022/05/31 02:14:02;;;;;;;20.83;9.98;;;;;;;;;;4962898;28;20041;-65
2022/05/31 02:16:28;;;;;;;20.73;10.85;;;;;;;;;;4972837;28;20041;-65
2022/05/31 02:21:37;;;;;;;18.33;10.13;;;;;;;;;;4975782;28;20038;-65
2022/05/31 02:24:04;;;;;;;23.35;10.25;;;;;;;;;;4973143;28;20052;-65
2022/05/31 02:26:30;;;;;;;23.10;10.00;;;;;;;;;;4984472;28;20042;-65
2022/05/31 02:28:59;;;;;;;22.67;10.48;;;;;;;;;;4994311;28;20037;-66
2022/05/31 02:31:24;;;;;;;21.08;9.93;;;;;;;;;;4949705;28;20033;-65
2022/05/31 02:33:50;;;;;;;22.23;10.07;;;;;;;;;;4985864;28;20139;-65
2022/05/31 02:36:15;;;;;;;13.70;6.60;;;;;;;;;;5002764;28;20114;-65
2022/05/31 02:38:40;;;;;;;14.32;6.32;;;;;;;;;;4994046;28;20035;-65
2022/05/31 02:41:06;;;;;;;13.43;7.05;;;;;;;;;;4994807;28;22255;-65
2022/05/31 02:43:31;;;;;;;14.57;7.28;;;;;;;;;;4994046;28;20048;-65
2022/05/31 02:46:00;;;;;;;14.43;7.20;;;;;;;;;;4976056;28;20053;-66
2022/05/31 02:48:26;;;;;;;17.13;8.18;;;;;;;;;;4974574;28;20934;-66
2022/05/31 02:50:51;;;;;;;17.05;8.27;;;;;;;;;;4975529;28;20058;-63
2022/05/31 02:53:17;;;;;;;14.95;7.60;;;;;;;;;;4974389;28;20510;-66
2022/05/31 02:55:44;;;;;;;15.60;7.60;;;;;;;;;;4986848;28;20041;-64
2022/05/31 02:58:10;;;;;;;17.17;8.38;;;;;;;;;;4973435;28;20064;-64
2022/05/31 03:00:35;;;;;;;20.08;8.93;;;;;;;;;;4973891;28;20905;-64
2022/05/31 03:03:03;;;;;;;27.35;10.75;;;;;;;;;;4973565;28;20061;-66
2022/05/31 03:05:29;;;;;;;22.27;10.23;;;;;;;;;;4972917;28;20038;-66
2022/05/31 03:07:54;;;;;;;20.30;8.80;;;;;;;;;;4970415;28;20105;-66
2022/05/31 03:10:19;;;;;;;17.55;8.48;;;;;;;;;;4969319;28;20042;-66
2022/05/31 03:12:45;;;;;;;20.90;9.30;;;;;;;;;;4974676;28;21180;-65
2022/05/31 03:15:14;;;;;;;16.83;8.63;;;;;;;;;;4971419;28;20034;-65
2022/05/31 03:17:53;;;;;;;20.08;8.27;;;;;;;;;;4973209;28;21015;-66
2022/05/31 03:20:19;;;;;;;15.00;8.00;;;;;;;;;;4983353;28;21132;-65
2022/05/31 03:22:46;;;;;;;14.77;8.00;;;;;;;;;;4974920;28;20042;-66
2022/05/31 03:25:34;;;;;;;17.27;7.88;;;;;;;;;;4972624;28;20052;-65
2022/05/31 03:28:02;;;;;;;17.20;8.35;;;;;;;;;;4975890;28;20040;-66
2022/05/31 03:30:28;;;;;;;16.35;7.15;;;;;;;;;;4969512;28;20116;-66
2022/05/31 03:32:55;;;;;;;11.90;6.55;;;;;;;;;;4974433;28;21148;-66
2022/05/31 03:35:20;;;;;;;14.65;6.90;;;;;;;;;;4972771;28;20032;-66
2022/05/31 03:37:46;;;;;;;13.65;7.32;;;;;;;;;;4985114;28;20096;-66
2022/05/31 03:40:55;;;;;;;14.70;7.22;;;;;;;;;;4973686;28;20132;-65
2022/05/31 03:42:58;;;;;;;14.70;7.47;;;;;;;;;;4970870;28;20060;-65
2022/05/31 03:45:30;;;;;;;14.48;7.03;;;;;;;;;;4971656;28;20045;-66
2022/05/31 03:47:58;;;;;;;15.02;7.20;;;;;;;;;;4970083;28;20048;-66
2022/05/31 03:50:23;;;;;;;13.73;6.53;;;;;;;;;;4940525;28;20033;-66
2022/05/31 03:52:48;;;;;;;12.85;6.60;;;;;;;;;;4982541;28;20025;-65
2022/05/31 03:55:13;;;;;;;18.40;7.55;;;;;;;;;;4983007;28;20557;-63
2022/05/31 03:57:38;;;;;;;15.57;7.63;;;;;;;;;;4971267;28;22376;-65
2022/05/31 04:00:08;;;;;;;20.23;9.13;;;;;;;;;;4971635;28;20029;-66
2022/05/31 04:02:33;;;;;;;22.10;11.48;;;;;;;;;;4973360;28;20053;-66
2022/05/31 04:04:59;;;;;;;24.00;11.57;;;;;;;;;;4972212;28;20033;-65
2022/05/31 04:07:24;;;;;;;17.17;9.07;;;;;;;;;;4960105;28;20038;-65
2022/05/31 04:09:51;;;;;;;15.13;7.22;;;;;;;;;;4971995;28;20037;-65
2022/05/31 04:12:16;;;;;;;14.88;7.22;;;;;;;;;;4972601;28;20038;-66
2022/05/31 04:14:41;;;;;;;14.23;7.35;;;;;;;;;;4972576;28;20128;-65
2022/05/31 04:17:07;;;;;;;15.50;7.72;;;;;;;;;;4972238;28;20053;-66
2022/05/31 04:19:35;;;;;;;13.65;7.63;;;;;;;;;;4966132;28;20738;-65
2022/05/31 04:22:01;;;;;;;12.85;7.38;;;;;;;;;;4959674;28;20073;-65
2022/05/31 04:24:26;;;;;;;14.10;8.00;;;;;;;;;;4971439;28;20061;-65
2022/05/31 04:26:51;;;;;;;16.13;8.85;;;;;;;;;;4974816;28;20042;-66
2022/05/31 04:29:17;;;;;;;22.40;8.85;;;;;;;;;;4977308;28;20048;-66
2022/05/31 04:31:42;;;;;;;19.42;9.25;;;;;;;;;;4972540;28;20119;-66
2022/05/31 04:34:07;;;;;;;16.88;9.00;;;;;;;;;;4978919;28;20196;-65
2022/05/31 04:36:35;;;;;;;21.38;10.73;;;;;;;;;;4970799;28;20060;-65
2022/05/31 04:39:01;;;;;;;20.65;10.30;;;;;;;;;;4969994;28;20566;-66
2022/05/31 04:41:30;;;;;;;20.95;9.85;;;;;;;;;;4961551;28;20827;-66
2022/05/31 04:43:57;;;;;;;20.30;8.95;;;;;;;;;;4970036;28;20050;-65
2022/05/31 04:46:24;;;;;;;18.70;8.88;;;;;;;;;;4971295;28;20147;-66
2022/05/31 04:48:49;;;;;;;16.80;8.65;;;;;;;;;;4971436;28;20803;-63
2022/05/31 04:51:17;;;;;;;19.63;8.80;;;;;;;;;;4958988;28;20108;-63
2022/05/31 04:53:44;;;;;;;17.90;8.77;;;;;;;;;;4962542;28;20089;-64
2022/05/31 04:56:12;;;;;;;18.77;8.95;;;;;;;;;;4970529;28;20635;-64
2022/05/31 04:58:37;;;;;;;22.17;10.27;;;;;;;;;;4969002;28;20089;-64
2022/05/31 05:01:06;;;;;;;20.85;9.98;;;;;;;;;;4971523;28;20589;-64
2022/05/31 05:03:31;;;;;;;23.63;10.77;;;;;;;;;;4969129;28;22372;-64
2022/05/31 05:06:03;;;;;;;24.85;11.35;;;;;;;;;;4969931;28;20022;-64
2022/05/31 05:08:29;;;;;;;28.25;11.18;;;;;;;;;;4970070;28;20045;-64
2022/05/31 05:10:55;;;;;;;22.52;11.95;;;;;;;;;;4970921;28;20653;-64
2022/05/31 05:13:21;;;;;;;20.38;10.63;;;;;;;;;;4968814;28;20096;-64
2022/05/31 05:15:51;;;;;;;22.13;10.75;;;;;;;;;;4970646;28;20088;-64
2022/05/31 05:18:17;;;;;;;27.60;11.68;;;;;;;;;;4952197;28;20156;-64
2022/05/31 05:20:42;;;;;;;26.02;11.90;;;;;;;;;;4969713;28;20038;-64
2022/05/31 05:23:08;;;;;;;20.85;10.43;;;;;;;;;;4969596;28;20034;-64
2022/05/31 05:25:35;;;;;;;22.77;9.80;;;;;;;;;;4972286;28;20211;-64
2022/05/31 05:28:01;;;;;;;27.80;11.10;;;;;;;;;;4988455;28;20255;-62
2022/05/31 05:30:39;;;;;;;29.23;13.60;;;;;;;;;;4984333;28;20079;-64
2022/05/31 05:33:05;;;;;;;28.30;13.65;;;;;;;;;;5002698;28;20038;-65
2022/05/31 05:35:31;;;;;;;25.73;13.50;;;;;;;;;;4990947;28;20049;-65
2022/05/31 05:37:56;;;;;;;22.58;10.90;;;;;;;;;;4975493;28;20029;-63
2022/05/31 05:40:22;;;;;;;21.33;9.93;;;;;;;;;;4972229;28;20229;-64
2022/05/31 05:42:47;;;;;;;22.05;9.82;;;;;;;;;;4968369;28;20046;-64
2022/05/31 05:45:15;;;;;;;24.33;8.60;;;;;;;;;;4968855;28;20046;-64
2022/05/31 05:47:41;;;;;;;18.77;7.85;;;;;;;;;;4971498;28;20937;-65
2022/05/31 05:50:07;;;;;;;19.95;8.02;;;;;;;;;;4972322;28;20032;-64
2022/05/31 05:52:33;;;;;;;15.50;6.97;;;;;;;;;;4973321;28;20045;-65
2022/05/31 05:54:58;;;;;;;14.73;6.28;;;;;;;;;;4974326;28;20064;-65
2022/05/31 05:57:26;;;;;;;12.57;5.80;;;;;;;;;;4972947;28;20144;-65
2022/05/31 05:59:51;;;;;;;17.67;6.10;;;;;;;;;;4959139;28;20608;-64
2022/05/31 06:02:24;;;;;;;11.32;5.15;;;;;;;;;;4975244;28;20072;-65
2022/05/31 06:04:52;;;;;;;12.75;5.70;;;;;;;;;;4972352;28;20045;-64
2022/05/31 06:07:35;;;;;;;11.98;4.95;;;;;;;;;;4974746;28;20076;-64
2022/05/31 06:10:06;;;;;;;12.10;5.18;;;;;;;;;;4973864;28;20048;-64
2022/05/31 06:12:36;;;;;;;14.60;6.32;;;;;;;;;;4978978;28;20123;-64
2022/05/31 06:15:04;;;;;;;12.25;5.82;;;;;;;;;;4970369;28;20038;-64
2022/05/31 06:17:33;;;;;;;17.20;5.80;;;;;;;;;;4974787;28;20041;-63
2022/05/31 06:20:01;;;;;;;13.55;6.03;;;;;;;;;;4968709;28;20068;-64
2022/05/31 06:22:29;;;;;;;12.43;4.57;;;;;;;;;;4971519;28;20181;-64
2022/05/31 06:24:56;;;;;;;8.80;4.45;;;;;;;;;;4972051;28;20045;-64
2022/05/31 06:27:23;;;;;;;11.82;4.95;;;;;;;;;;4973556;28;20140;-64
2022/05/31 06:29:48;;;;;;;12.38;4.85;;;;;;;;;;4966355;28;20536;-66
2022/05/31 06:32:16;;;;;;;11.43;4.55;;;;;;;;;;4970670;28;20622;-64
2022/05/31 06:34:45;;;;;;;11.88;4.88;;;;;;;;;;4966106;28;20613;-66
2022/05/31 06:37:11;;;;;;;10.57;4.53;;;;;;;;;;4967500;28;20238;-66
2022/05/31 06:39:41;;;;;;;11.88;4.40;;;;;;;;;;4969695;28;20041;-66
2022/05/31 06:42:07;;;;;;;10.30;3.75;;;;;;;;;;4969047;28;20046;-66
2022/05/31 06:44:33;;;;;;;11.30;4.45;;;;;;;;;;4983502;28;20092;-66
2022/05/31 06:46:58;;;;;;;10.10;4.15;;;;;;;;;;4974319;28;20639;-66
2022/05/31 06:49:24;;;;;;;10.50;4.47;;;;;;;;;;4969347;28;20056;-66
2022/05/31 06:57:17;;;;;;;13.80;5.68;;;;;;;;;;4969165;28;20266;-65
2022/05/31 06:59:43;;;;;;;10.70;4.55;;;;;;;;;;4969174;28;20161;-68
2022/05/31 07:02:08;;;;;;;9.77;4.35;;;;;;;;;;4964612;28;20041;-68
2022/05/31 07:04:34;;;;;;;9.18;4.20;;;;;;;;;;4962835;28;20274;-66
2022/05/31 07:07:00;;;;;;;9.50;4.32;;;;;;;;;;4968764;28;20085;-67
2022/05/31 07:09:25;;;;;;;7.25;4.13;;;;;;;;;;4985465;28;20099;-67
2022/05/31 07:11:51;;;;;;;10.38;4.72;;;;;;;;;;4968597;28;20377;-67
2022/05/31 07:14:16;;;;;;;9.35;5.05;;;;;;;;;;4968545;28;20397;-66
2022/05/31 07:16:42;;;;;;;9.60;3.70;;;;;;;;;;4970555;28;20629;-66
2022/05/31 07:19:08;;;;;;;8.40;3.30;;;;;;;;;;4971041;28;20045;-67
2022/05/31 07:21:36;;;;;;;8.65;3.13;;;;;;;;;;4968939;28;20455;-67
2022/05/31 07:24:04;;;;;;;8.80;3.50;;;;;;;;;;4960758;28;20065;-68
2022/05/31 07:26:29;;;;;;;5.50;3.17;;;;;;;;;;4970390;28;20190;-68
2022/05/31 07:28:55;;;;;;;6.28;3.10;;;;;;;;;;4963819;28;20717;-69
2022/05/31 07:31:20;;;;;;;10.63;4.85;;;;;;;;;;4969190;28;20045;-69
2022/05/31 07:33:47;;;;;;;9.25;4.60;;;;;;;;;;4970459;28;20057;-69
2022/05/31 07:36:13;;;;;;;9.50;4.00;;;;;;;;;;4968605;28;20279;-68
2022/05/31 07:38:38;;;;;;;7.28;3.25;;;;;;;;;;4969313;28;20135;-69
2022/05/31 07:41:04;;;;;;;7.47;3.47;;;;;;;;;;4970994;28;20030;-69
2022/05/31 07:43:29;;;;;;;9.10;3.50;;;;;;;;;;4968870;28;20636;-69
2022/05/31 07:46:05;;;;;;;9.30;3.78;;;;;;;;;;4964715;28;20176;-69
2022/05/31 07:48:31;;;;;;;9.13;5.00;;;;;;;;;;4968232;28;20038;-70
2022/05/31 07:50:56;;;;;;;6.70;4.20;;;;;;;;;;4956409;28;20915;-69
2022/05/31 07:53:24;;;;;;;7.65;3.22;;;;;;;;;;4966217;28;20157;-70
2022/05/31 07:55:53;;;;;;;6.30;3.22;;;;;;;;;;4969566;28;20033;-71
2022/05/31 07:58:31;;;;;;;7.07;3.70;;;;;;;;;;4971367;28;20534;-73
2022/05/31 08:00:56;;;;;;;6.47;3.60;;;;;;;;;;4970146;28;20038;-70
2022/05/31 08:03:21;;;;;;;8.27;4.00;;;;;;;;;;4968047;28;20772;-69
2022/05/31 08:05:46;;;;;;;8.48;4.20;;;;;;;;;;4967546;28;20492;-71
2022/05/31 08:08:12;;;;;;;7.15;4.10;;;;;;;;;;4963302;28;20502;-68
2022/05/31 08:10:37;;;;;;;6.63;4.10;;;;;;;;;;4960493;28;20057;-69
2022/05/31 08:13:05;;;;;;;9.98;4.25;;;;;;;;;;4959059;28;20042;-69
2022/05/31 08:15:31;;;;;;;8.27;3.22;;;;;;;;;;4959881;28;20045;-70
2022/05/31 08:17:56;;;;;;;7.82;4.05;;;;;;;;;;4959208;28;20042;-69
2022/05/31 08:20:21;;;;;;;7.20;2.75;;;;;;;;;;4957486;28;20492;-69
2022/05/31 08:22:48;;;;;;;9.00;2.70;;;;;;;;;;4970406;28;20045;-69
2022/05/31 08:25:14;;;;;;;9.00;2.85;;;;;;;;;;4966572;28;20057;-69
2022/05/31 08:27:39;;;;;;;7.03;2.63;;;;;;;;;;4967038;28;20537;-68
2022/05/31 08:30:07;;;;;;;5.60;2.50;;;;;;;;;;4964428;28;20299;-69
2022/05/31 08:32:36;;;;;;;4.90;2.30;;;;;;;;;;4964833;28;20037;-70
2022/05/31 08:35:02;;;;;;;5.18;2.10;;;;;;;;;;4941226;28;20283;-70
2022/05/31 08:37:27;;;;;;;4.82;2.40;;;;;;;;;;4967630;28;20132;-69
2022/05/31 08:39:52;;;;;;;7.72;2.45;;;;;;;;;;4963083;28;20034;-68
2022/05/31 08:42:22;;;;;;;7.75;2.80;;;;;;;;;;4964179;28;20215;-68
2022/05/31 08:44:52;;;;;;;10.57;2.60;;;;;;;;;;4959539;28;20206;-69
2022/05/31 08:47:36;;;;;;;5.32;2.65;;;;;;;;;;4963561;28;20140;-70
2022/05/31 08:53:01;;;;;;;6.22;2.50;;;;;;;;;;4983334;28;20030;-69
2022/05/31 08:58:19;;;;;;;7.10;2.50;;;;;;;;;;4980517;28;20037;-68
2022/05/31 09:00:46;;;;;;;5.03;2.30;;;;;;;;;;4963550;28;20128;-68
2022/05/31 09:03:11;;;;;;;7.03;2.60;;;;;;;;;;4964980;28;20661;-68
2022/05/31 09:05:41;;;;;;;6.00;2.53;;;;;;;;;;4963052;28;20037;-68
2022/05/31 09:08:24;;;;;;;6.38;2.42;;;;;;;;;;4962827;28;20041;-66
2022/05/31 09:10:56;;;;;;;4.30;2.50;;;;;;;;;;4961729;28;20239;-69
2022/05/31 09:13:21;;;;;;;6.23;2.50;;;;;;;;;;4965526;28;20029;-69
2022/05/31 09:15:52;;;;;;;6.18;2.53;;;;;;;;;;4964644;28;20049;-68
2022/05/31 09:18:26;;;;;;;8.50;3.03;;;;;;;;;;4963382;28;20048;-68
2022/05/31 09:20:53;;;;;;;6.35;3.47;;;;;;;;;;4958724;28;20618;-68
2022/05/31 09:23:23;;;;;;;7.25;3.45;;;;;;;;;;4961793;28;20096;-65
2022/05/31 09:25:52;;;;;;;6.88;2.65;;;;;;;;;;4960987;28;20524;-67
2022/05/31 09:28:20;;;;;;;5.25;3.08;;;;;;;;;;4978091;28;20143;-68
2022/05/31 09:30:46;;;;;;;6.93;3.40;;;;;;;;;;4984555;28;20621;-69
2022/05/31 09:33:26;;;;;;;7.40;2.97;;;;;;;;;;4986776;28;20509;-67
2022/05/31 09:36:00;;;;;;;9.43;3.33;;;;;;;;;;4983035;28;20045;-68
2022/05/31 09:38:39;;;;;;;5.07;2.72;;;;;;;;;;4985477;28;20033;-69
2022/05/31 09:41:09;;;;;;;4.50;2.58;;;;;;;;;;4986042;28;20037;-66
2022/05/31 09:43:35;;;;;;;5.30;3.00;;;;;;;;;;4985171;28;20409;-66
2022/05/31 09:46:08;;;;;;;7.78;2.22;;;;;;;;;;4984404;28;20033;-67
2022/05/31 09:48:33;;;;;;;5.70;2.90;;;;;;;;;;4982083;28;20092;-67
2022/05/31 09:51:17;;;;;;;5.13;2.80;;;;;;;;;;4984663;28;20497;-69
2022/05/31 09:59:12;;;;;;;10.05;3.15;;;;;;;;;;4958886;28;20037;-67
2022/05/31 10:01:44;;;;;;;6.93;2.80;;;;;;;;;;4967839;28;20100;-65
2022/05/31 10:04:22;;;;;;;8.27;3.35;;;;;;;;;;4964007;28;20037;-66
2022/05/31 10:06:55;;;;;;;6.45;3.00;;;;;;;;;;4969022;28;20125;-67
2022/05/31 10:09:23;;;;;;;5.22;3.20;;;;;;;;;;4962858;28;20565;-67
2022/05/31 10:11:49;;;;;;;5.47;2.95;;;;;;;;;;4964273;28;20041;-67
2022/05/31 10:14:20;;;;;;;8.93;3.80;;;;;;;;;;4964040;28;20026;-67
2022/05/31 10:16:47;;;;;;;7.90;3.72;;;;;;;;;;4967659;28;20088;-67
2022/05/31 10:19:30;;;;;;;9.13;3.33;;;;;;;;;;4970904;28;20092;-67
2022/05/31 10:22:13;;;;;;;8.35;3.33;;;;;;;;;;4968778;28;20947;-67
2022/05/31 10:24:38;;;;;;;9.02;2.90;;;;;;;;;;4972768;28;20051;-67
2022/05/31 10:27:09;;;;;;;8.55;2.92;;;;;;;;;;4972317;28;21083;-67
2022/05/31 10:29:50;;;;;;;7.22;3.10;;;;;;;;;;4971828;28;20069;-66
2022/05/31 10:32:38;;;;;;;9.95;3.08;;;;;;;;;;4991264;28;20033;-65
2022/05/31 10:35:24;;;;;;;11.57;3.10;;;;;;;;;;4969548;28;20100;-66
2022/05/31 10:38:12;;;;;;;6.93;3.35;;;;;;;;;;4975996;28;20038;-66
2022/05/31 10:40:40;;;;;;;7.50;2.92;;;;;;;;;;4963927;28;20449;-67
2022/05/31 10:43:15;;;;;;;6.07;2.90;;;;;;;;;;4968597;28;20436;-67
2022/05/31 10:45:40;;;;;;;7.30;3.55;;;;;;;;;;4962524;28;20505;-65
2022/05/31 10:48:05;;;;;;;5.25;2.92;;;;;;;;;;4967061;28;20817;-67
2022/05/31 10:50:39;;;;;;;6.20;3.20;;;;;;;;;;4966531;28;20814;-68
2022/05/31 10:53:17;;;;;;;6.45;3.33;;;;;;;;;;4969884;28;20359;-67
2022/05/31 10:55:48;;;;;;;7.78;3.20;;;;;;;;;;4988153;28;20057;-66
2022/05/31 10:58:29;;;;;;;10.60;3.20;;;;;;;;;;4971211;28;20034;-68
2022/05/31 11:01:18;;;;;;;5.38;3.10;;;;;;;;;;4968142;28;20041;-67
2022/05/31 11:04:01;;;;;;;6.05;3.10;;;;;;;;;;4965715;28;20037;-67
2022/05/31 11:06:51;;;;;;;7.57;3.10;;;;;;;;;;4972925;28;20045;-67
2022/05/31 11:12:11;;;;;;;7.47;3.33;;;;;;;;;;4969930;28;20030;-67
2022/05/31 11:14:36;;;;;;;5.65;2.88;;;;;;;;;;4965318;28;20423;-66
2022/05/31 11:17:20;;;;;;;8.57;3.28;;;;;;;;;;4966240;28;20488;-66
2022/05/31 11:20:21;;;;;;;7.93;3.20;;;;;;;;;;4964345;28;20159;-67
2022/05/31 11:23:12;;;;;;;7.50;2.75;;;;;;;;;;4919494;28;20281;-67
2022/05/31 11:25:41;;;;;;;6.68;2.67;;;;;;;;;;4959459;28;20429;-67
2022/05/31 11:28:17;;;;;;;7.15;2.95;;;;;;;;;;4963892;28;20030;-67
2022/05/31 11:30:45;;;;;;;6.35;2.45;;;;;;;;;;4967477;28;20038;-67
2022/05/31 11:33:36;;;;;;;8.73;2.70;;;;;;;;;;4965938;28;20253;-67
2022/05/31 11:36:20;;;;;;;6.88;2.40;;;;;;;;;;4958716;28;20045;-66
2022/05/31 11:39:12;;;;;;;5.82;2.40;;;;;;;;;;4965770;28;20040;-66
2022/05/31 11:41:53;;;;;;;5.90;2.30;;;;;;;;;;4965422;28;20041;-66
2022/05/31 11:44:39;;;;;;;8.23;2.45;;;;;;;;;;4963161;28;20180;-67
2022/05/31 11:47:19;;;;;;;5.20;2.35;;;;;;;;;;4975531;28;20317;-67
2022/05/31 11:49:45;;;;;;;5.10;2.22;;;;;;;;;;4963582;28;20052;-66
2022/05/31 11:52:14;;;;;;;5.63;2.45;;;;;;;;;;4965069;28;20349;-67
2022/05/31 11:55:25;;;;;;;6.50;2.53;;;;;;;;;;4963483;28;20121;-68
2022/05/31 11:57:40;;;;;;;6.07;2.03;;;;;;;;;;4967374;28;20048;-66
2022/05/31 12:00:09;;;;;;;6.13;2.30;;;;;;;;;;4965717;28;20288;-69
2022/05/31 12:02:49;;;;;;;6.80;2.58;;;;;;;;;;4959666;28;20226;-66
2022/05/31 12:05:21;;;;;;;6.25;2.13;;;;;;;;;;4971757;28;20037;-66
2022/05/31 12:08:03;;;;;;;6.28;2.17;;;;;;;;;;4967971;28;20064;-66
2022/05/31 12:10:29;;;;;;;9.40;2.92;;;;;;;;;;4966731;28;20693;-66
2022/05/31 12:12:57;;;;;;;5.97;2.20;;;;;;;;;;4965236;28;20042;-66
2022/05/31 12:15:23;;;;;;;4.57;2.63;;;;;;;;;;4967750;28;20588;-67
2022/05/31 12:17:52;;;;;;;6.75;2.80;;;;;;;;;;4968647;28;20038;-66
2022/05/31 12:20:29;;;;;;;6.15;2.67;;;;;;;;;;4969122;28;20068;-67
2022/05/31 12:23:05;;;;;;;6.80;2.88;;;;;;;;;;4970884;28;20151;-66
2022/05/31 12:25:33;;;;;;;5.85;2.95;;;;;;;;;;4967377;28;20112;-66
2022/05/31 12:28:06;;;;;;;7.97;3.00;;;;;;;;;;4963934;28;20473;-67
2022/05/31 12:30:36;;;;;;;7.28;2.70;;;;;;;;;;4972882;28;20064;-67
2022/05/31 12:33:01;;;;;;;10.27;2.65;;;;;;;;;;4964737;28;20033;-67
2022/05/31 12:35:29;;;;;;;9.38;2.60;;;;;;;;;;4970578;28;20057;-67
2022/05/31 12:38:00;;;;;;;7.35;2.83;;;;;;;;;;4971132;28;20103;-66
2022/05/31 12:40:26;;;;;;;;;;;;;;;;;;4970878;28;20052;-67
2022/05/31 12:42:51;;;;;;;6.50;2.80;;;;;;;;;;4977534;28;20047;-66
2022/05/31 12:45:24;;;;;;;8.82;2.85;;;;;;;;;;4971607;28;20033;-70
2022/05/31 12:47:54;;;;;;;7.22;2.55;;;;;;;;;;4966839;28;20041;-69
2022/05/31 12:50:38;;;;;;;6.32;2.60;;;;;;;;;;4972091;28;20061;-68
2022/05/31 12:55:36;;;;;;;6.38;3.10;;;;;;;;;;4974466;28;21074;-71
2022/05/31 13:00:53;;;;;;;5.43;3.00;;;;;;;;;;4972252;28;20488;-71
2022/05/31 13:03:36;;;;;;;6.93;3.17;;;;;;;;;;4976505;28;20062;-70
2022/05/31 13:06:02;;;;;;;4.97;2.65;;;;;;;;;;4984329;28;20125;-71
2022/05/31 13:08:46;;;;;;;6.88;2.60;;;;;;;;;;4970733;28;20048;-71
2022/05/31 13:19:35;;;;;;;8.68;2.85;;;;;;;;;;4977326;28;20038;-70
2022/05/31 13:22:03;;;;;;;6.80;3.72;;;;;;;;;;4973666;28;20153;-69
2022/05/31 13:24:31;;;;;;;7.07;3.40;;;;;;;;;;4971996;28;20029;-71
2022/05/31 13:26:58;;;;;;;6.70;3.45;;;;;;;;;;4969686;28;20026;-69
2022/05/31 13:29:23;;;;;;;9.82;3.90;;;;;;;;;;4969943;28;21369;-67
2022/05/31 13:31:48;;;;;;;10.10;3.92;;;;;;;;;;5003418;28;20030;-68
2022/05/31 13:34:22;;;;;;;8.05;3.60;;;;;;;;;;4989513;28;20166;-68
2022/05/31 13:36:48;;;;;;;7.15;3.28;;;;;;;;;;4988685;28;20339;-67
2022/05/31 13:39:16;;;;;;;6.60;3.40;;;;;;;;;;4967551;28;20038;-67
2022/05/31 13:41:44;;;;;;;7.32;3.75;;;;;;;;;;4968043;28;20149;-67
2022/05/31 13:44:10;;;;;;;5.35;3.65;;;;;;;;;;4969291;28;20523;-67
2022/05/31 13:46:35;;;;;;;9.13;4.25;;;;;;;;;;4968985;28;20066;-68
2022/05/31 13:49:13;;;;;;;6.80;3.60;;;;;;;;;;4961841;28;20647;-65
2022/05/31 13:51:47;;;;;;;5.95;3.30;;;;;;;;;;4966573;28;21763;-66
2022/05/31 13:54:17;;;;;;;8.30;3.95;;;;;;;;;;4976273;28;20632;-67
2022/05/31 13:56:44;;;;;;;8.77;3.97;;;;;;;;;;4985533;28;20038;-66
2022/05/31 13:59:11;;;;;;;8.25;3.50;;;;;;;;;;4973158;28;20499;-68
2022/05/31 14:01:38;;;;;;;7.78;3.20;;;;;;;;;;4972186;28;20278;-67
2022/05/31 14:04:06;;;;;;;5.72;2.85;;;;;;;;;;4971499;28;20161;-67
2022/05/31 14:06:34;;;;;;;6.82;2.63;;;;;;;;;;4985236;28;20593;-66
2022/05/31 14:09:00;;;;;;;5.18;2.40;;;;;;;;;;4968095;28;20300;-68
2022/05/31 14:11:27;;;;;;;9.43;3.40;;;;;;;;;;4970643;28;20042;-68
2022/05/31 14:13:54;;;;;;;9.60;3.20;;;;;;;;;;4969628;28;20267;-68
2022/05/31 14:16:36;;;;;;;6.85;3.55;;;;;;;;;;4972272;28;20076;-70
2022/05/31 14:19:01;;;;;;;6.35;3.50;;;;;;;;;;4969620;28;20042;-70
2022/05/31 14:21:30;;;;;;;6.32;2.85;;;;;;;;;;4976251;28;20180;-70
2022/05/31 14:23:56;;;;;;;6.85;2.90;;;;;;;;;;4975901;28;20045;-70
2022/05/31 14:26:22;;;;;;;7.00;2.85;;;;;;;;;;4969382;28;22429;-70
2022/05/31 14:29:06;;;;;;;5.60;2.78;;;;;;;;;;4987181;28;20049;-70
2022/05/31 14:31:31;;;;;;;5.35;2.17;;;;;;;;;;4975158;28;20038;-68
2022/05/31 14:34:00;;;;;;;6.13;2.55;;;;;;;;;;4969746;28;20132;-67
2022/05/31 14:36:34;;;;;;;7.35;2.03;;;;;;;;;;4969357;28;20034;-67
2022/05/31 14:39:01;;;;;;;5.20;1.98;;;;;;;;;;4970827;28;20145;-68
2022/05/31 14:41:34;;;;;;;5.72;2.10;;;;;;;;;;4970458;28;20932;-67
2022/05/31 14:44:00;;;;;;;3.97;1.80;;;;;;;;;;4971341;28;20045;-70
2022/05/31 14:46:30;;;;;;;5.93;2.33;;;;;;;;;;4971363;28;20202;-70
2022/05/31 14:49:07;;;;;;;6.03;2.83;;;;;;;;;;4987242;28;20134;-68
2022/05/31 14:51:34;;;;;;;6.07;2.40;;;;;;;;;;4969788;28;20084;-70
2022/05/31 14:54:00;;;;;;;8.63;2.78;;;;;;;;;;4965531;28;20034;-69
2022/05/31 14:56:34;;;;;;;5.75;2.47;;;;;;;;;;4969665;28;20513;-70
2022/05/31 14:59:00;;;;;;;5.93;2.00;;;;;;;;;;4967737;28;20159;-69
2022/05/31 15:01:32;;;;;;;5.78;2.50;;;;;;;;;;4986414;28;20147;-69
2022/05/31 15:04:05;;;;;;;3.30;2.10;;;;;;;;;;4971571;28;20042;-68
2022/05/31 15:06:35;;;;;;;5.07;1.95;;;;;;;;;;4964960;28;20060;-69
2022/05/31 15:09:04;;;;;;;5.57;2.35;;;;;;;;;;4972826;28;20041;-69
2022/05/31 15:19:47;;;;;;;5.07;2.22;;;;;;;;;;4971900;28;20059;-71
2022/05/31 15:22:18;;;;;;;5.53;2.40;;;;;;;;;;4971784;28;20579;-70
2022/05/31 15:24:48;;;;;;;4.95;2.20;;;;;;;;;;4993184;28;20820;-70
2022/05/31 15:27:21;;;;;;;7.05;2.22;;;;;;;;;;4994131;28;20856;-69
2022/05/31 15:29:47;;;;;;;4.53;2.10;;;;;;;;;;4988224;28;20036;-72
2022/05/31 15:32:12;;;;;;;4.60;2.10;;;;;;;;;;4988353;28;20025;-71